Hovedside
METAR-TAF:

METAR-TAF

Lufthavner :

Perth, Australia

Perth lufthavn

breddegrad: 31-56S, lengdegrad: 115-57E, høyde over havet: 20 m

Gjeldene værobservasjon

Denne rapporten ble laget for 34 minutter siden, klokken 06:30 UTC
Vind 7 kt fra Øst-sørøst, skiftende mellom Øst og Sør-sørøst
Temperatur 24°C
Luftfuktighet 31%
Trykk 1017 hPa
Sikt 10 km eller mer
ingen skyer under 1500 m og ingen bygeskyer

METAR: YPPH 250630Z 11007KT 090V150 CAVOK 24/06 Q1017 NOSIG

Tid: 15:04 (07:04 UTC)

Varsel

Denne rapporten ble laget for 1 time og 31 minutter siden, klokken 05:33 UTC
Varsel gyldig fra 25. klokken 06 UTC til 26. klokken 12 UTC
Vind 8 kt fra Øst
Sikt 10 km eller mer
ingen skyer under 1500 m og ingen bygeskyer
Fra 26. klokken 0400 UTC
Vind 10 kt fra Nord-nordvest
Sikt 10 km eller mer
ingen skyer under 1500 m og ingen bygeskyer

TAF: YPPH 250533Z 2506/2612 10008KT CAVOK FM260400 34010KT CAVOK

Værobservasjoner og værvarsel for over 4000 flyplasser (METAR- og TAF-rapporter).

Tilgjengelige stasjoner er representert av de røde og gule prikkene på kartet.

Hold musepekeren over prikken for å se navnet på stasjonen.

Klikk så for å se værobservasjoner og -varsler.

For å forandre kartet kan du klikke på den grønne knappen med svart kryss for å zoome inn, på den grønne knappen med strek for å zoome ut, eller på de grønne pilene for å se tilstøtende kart.


METAR-TAF: